Portada
METAR-TAF:

METAR-TAF

Aeroports :

Singapur, Singapur

latitud: 01-22N, longitud: 103-55E, altitud: 18 m

Observació

L'informe es va fer fa 15 minuts, a les 09:00 UTC
Vent calma
Temperatura 28°C
Humitat 84%
Pressió 1008 hPa
Visibilitat: 8000 m
Escasses núvols a una alçada de 1800 ft, Cumulonimbus.
Cel ennuvolat a una alçada de 17000 ft
tempesta a les proximitats

METAR: WSAP 120900Z 00000KT 8000 VCTS FEW018CB BKN170 28/25 Q1008 RESHRA

Hora: 17:15 (09:15 UTC)

Pronòstic

L'informe es va fer fa 1 hora i 15 minuts, a les 08:00 UTC
Pronòstic vàlid del 12 a les 08 UTC al 13 a les 12 UTC
Vent 7 kt del Oest/Sud-Oest
Visibilitat 10 km o més
Escasses núvols a una alçada de 1500 ft
Núvols disperses a una alçada de 2000 ft
Temporalment
l' 13 a les 05 UTC al 13 a les 08 UTC
Visibilitat: 3000 m
Escasses núvols a una alçada de 1200 ft, Cumulonimbus.
Cel ennuvolat a una alçada de 1500 ft
tempesta, pluja

TAF: WSAP 120800Z 1208/1312 24007KT 9999 FEW015 SCT020 TEMPO 1305/1308 3000 TSRA FEW012CB BKN015

Observacions i pronòstics meteorològics de més de 4000 aeroports (METAR i TAF).

Les estacions disponibles són els punts grocs i vermells al mapa.

Posi el ratolí al punt desitjat per veure el nom de l'estació.

Feu clic per veure les observacions i els pronòstics meteorològics.

Per canviar el mapa: feu clic els botons verds amb una creu de color negre per apropar; al botó verd amb un guió per allunyar la imatge; o en les fletxes verdes per a mapes adjacents.


METAR-TAF: